createdAt,value
2022-11-25T00:01:34.708Z,0.00
2022-11-25T00:04:02.874Z,0.00
2022-11-25T00:09:10.074Z,0.00
2022-11-25T00:11:39.994Z,0.00
2022-11-25T00:14:10.816Z,0.00
2022-11-25T00:16:46.706Z,0.00
2022-11-25T00:19:20.759Z,0.00
2022-11-25T00:21:48.693Z,0.00
2022-11-25T00:24:17.071Z,0.00
2022-11-25T00:26:44.639Z,0.00
2022-11-25T00:29:14.146Z,0.00
2022-11-25T00:31:41.766Z,0.00
2022-11-25T00:34:13.922Z,0.00
2022-11-25T00:36:41.511Z,0.00
2022-11-25T00:39:14.712Z,0.00
2022-11-25T00:42:02.371Z,0.00
2022-11-25T00:44:36.062Z,0.00
2022-11-25T00:47:14.748Z,0.00
2022-11-25T00:50:02.666Z,0.00
2022-11-25T00:52:38.256Z,0.00
2022-11-25T00:55:06.090Z,0.10
2022-11-25T00:57:37.883Z,0.00
2022-11-25T01:00:06.439Z,0.00
2022-11-25T01:02:34.132Z,0.00
2022-11-25T01:05:01.872Z,0.00
2022-11-25T01:07:29.461Z,0.00
2022-11-25T01:09:57.128Z,0.00
2022-11-25T01:12:26.353Z,0.00
2022-11-25T01:14:53.922Z,0.00
2022-11-25T01:17:21.437Z,0.00
2022-11-25T01:19:49.217Z,0.00
2022-11-25T01:22:16.876Z,0.00
2022-11-25T01:24:44.395Z,0.00
2022-11-25T01:27:11.855Z,0.00
2022-11-25T01:29:41.674Z,0.00
2022-11-25T01:32:09.190Z,0.00
2022-11-25T01:34:37.576Z,0.00
2022-11-25T01:37:05.598Z,0.00
2022-11-25T01:39:33.493Z,0.00
2022-11-25T01:42:02.116Z,0.00
2022-11-25T01:47:24.378Z,49.08
2022-11-25T01:50:07.379Z,57.80
2022-11-25T01:52:39.126Z,53.65
2022-11-25T01:55:21.855Z,51.83
2022-11-25T01:57:58.262Z,56.22
2022-11-25T02:00:25.854Z,64.70
2022-11-25T02:02:55.470Z,66.07
2022-11-25T02:05:34.593Z,63.60
2022-11-25T02:08:02.479Z,60.80
2022-11-25T02:10:32.084Z,59.83
2022-11-25T02:13:00.292Z,60.67
2022-11-25T02:17:56.982Z,56.58
2022-11-25T02:20:25.079Z,65.10
2022-11-25T02:23:01.285Z,66.88
2022-11-25T02:25:35.079Z,77.30
2022-11-25T02:28:13.854Z,57.15
2022-11-25T02:30:41.768Z,71.53
2022-11-25T02:33:09.806Z,59.08
2022-11-25T02:35:49.782Z,71.18
2022-11-25T02:38:33.450Z,71.82
2022-11-25T02:41:07.644Z,51.40
2022-11-25T02:43:36.692Z,65.57
2022-11-25T02:46:09.852Z,77.85
2022-11-25T02:49:07.411Z,69.60
2022-11-25T02:51:29.837Z,61.25
2022-11-25T02:54:00.658Z,69.18
2022-11-25T02:56:31.374Z,67.57
2022-11-25T02:59:06.583Z,69.35
2022-11-25T03:01:35.372Z,71.60
2022-11-25T03:04:07.171Z,57.28
2022-11-25T03:06:35.045Z,66.00
2022-11-25T03:09:03.209Z,60.15
2022-11-25T03:11:50.090Z,65.25
2022-11-25T03:14:18.200Z,69.13
2022-11-25T03:16:45.735Z,64.10
2022-11-25T03:19:13.352Z,76.65
2022-11-25T03:21:40.809Z,86.63
2022-11-25T03:24:08.428Z,70.40
2022-11-25T03:26:35.878Z,73.22
2022-11-25T03:29:04.185Z,66.05
2022-11-25T03:31:31.676Z,100.72
2022-11-25T03:33:59.184Z,80.10
2022-11-25T03:36:26.716Z,71.07
2022-11-25T03:38:54.144Z,67.95
2022-11-25T03:41:21.681Z,71.70
2022-11-25T03:43:49.469Z,85.13
2022-11-25T03:46:18.616Z,87.20
2022-11-25T03:48:46.165Z,74.53
2022-11-25T03:51:13.720Z,73.03
2022-11-25T03:53:41.210Z,61.83
2022-11-25T03:56:10.265Z,75.85
2022-11-25T03:58:37.784Z,68.90
2022-11-25T04:01:06.836Z,53.85
2022-11-25T04:03:34.679Z,57.53
2022-11-25T04:06:02.239Z,61.10
2022-11-25T04:08:33.555Z,57.42
2022-11-25T04:11:02.094Z,59.72
2022-11-25T04:13:35.148Z,59.67
2022-11-25T04:16:03.645Z,65.40
2022-11-25T04:18:31.259Z,63.42
2022-11-25T04:21:00.190Z,71.70
2022-11-25T04:23:29.999Z,67.93
2022-11-25T04:26:02.301Z,70.07
2022-11-25T04:28:37.349Z,66.82
2022-11-25T04:31:09.079Z,60.72
2022-11-25T04:33:39.421Z,75.15
2022-11-25T04:36:09.086Z,66.28
2022-11-25T04:38:36.788Z,63.83
2022-11-25T04:41:05.802Z,57.10
2022-11-25T04:43:38.915Z,66.45
2022-11-25T04:46:19.473Z,55.13
2022-11-25T04:48:50.695Z,66.38
2022-11-25T04:51:19.391Z,67.13
2022-11-25T04:53:50.518Z,59.70
2022-11-25T04:56:20.390Z,72.18
2022-11-25T04:59:09.035Z,61.35
2022-11-25T05:01:40.590Z,63.70
2022-11-25T05:04:22.787Z,60.90
2022-11-25T05:06:51.679Z,80.13
2022-11-25T05:09:20.266Z,59.08
2022-11-25T05:11:59.221Z,72.80
2022-11-25T05:14:26.793Z,54.58
2022-11-25T05:16:54.625Z,65.30
2022-11-25T05:19:22.227Z,64.38
2022-11-25T05:21:50.204Z,71.70
2022-11-25T05:24:18.780Z,63.95
2022-11-25T05:26:51.651Z,59.88
2022-11-25T05:29:20.139Z,58.67
2022-11-25T05:31:48.946Z,57.40
2022-11-25T05:34:16.904Z,55.58
2022-11-25T05:36:45.681Z,52.72
2022-11-25T05:39:13.859Z,57.50
2022-11-25T05:42:04.348Z,66.95
2022-11-25T05:44:32.027Z,68.00
2022-11-25T05:46:59.642Z,56.13
2022-11-25T05:49:27.092Z,68.95
2022-11-25T05:51:54.590Z,66.22
2022-11-25T05:54:25.715Z,55.50
2022-11-25T05:56:53.572Z,65.05
2022-11-25T05:59:26.815Z,67.47
2022-11-25T06:02:20.601Z,50.28
2022-11-25T06:04:48.287Z,56.53
2022-11-25T06:07:18.350Z,54.53
2022-11-25T06:09:46.163Z,64.78
2022-11-25T06:12:13.895Z,56.10
2022-11-25T06:14:48.495Z,52.75
2022-11-25T06:17:16.380Z,54.17
2022-11-25T06:20:04.055Z,59.65
2022-11-25T06:22:31.915Z,56.80
2022-11-25T06:25:03.587Z,57.47
2022-11-25T06:27:50.443Z,50.55
2022-11-25T06:30:24.223Z,55.65
2022-11-25T06:33:06.666Z,44.45
2022-11-25T06:35:34.546Z,55.55
2022-11-25T06:38:03.607Z,53.28
2022-11-25T06:40:31.218Z,58.00
2022-11-25T06:42:58.770Z,50.95
2022-11-25T06:45:26.293Z,65.47
2022-11-25T06:47:53.947Z,62.50
2022-11-25T06:50:21.567Z,56.67
2022-11-25T06:52:49.193Z,46.67
2022-11-25T06:55:17.358Z,53.35
2022-11-25T07:00:12.486Z,63.65
2022-11-25T07:02:48.019Z,54.40
2022-11-25T07:05:16.555Z,52.20
2022-11-25T07:07:44.158Z,58.42
2022-11-25T07:10:11.830Z,46.30
2022-11-25T07:12:40.070Z,46.13
2022-11-25T07:15:08.033Z,58.08
2022-11-25T07:17:35.573Z,57.97
2022-11-25T07:20:03.295Z,59.45
2022-11-25T07:22:41.102Z,64.43
2022-11-25T07:25:09.428Z,46.03
2022-11-25T07:27:40.512Z,59.70
2022-11-25T07:31:09.311Z,49.80
2022-11-25T07:32:56.552Z,58.00
2022-11-25T07:35:24.153Z,48.42
2022-11-25T07:37:54.506Z,41.53
2022-11-25T07:40:22.169Z,41.28
2022-11-25T07:42:49.754Z,45.50
2022-11-25T07:45:17.473Z,64.22
2022-11-25T07:47:46.601Z,39.72
2022-11-25T07:51:07.226Z,61.42
2022-11-25T07:53:35.991Z,44.88
2022-11-25T07:56:03.693Z,58.22
2022-11-25T07:58:50.220Z,39.40
2022-11-25T08:01:20.015Z,56.53
2022-11-25T08:04:36.296Z,57.10
2022-11-25T08:07:04.006Z,57.75
2022-11-25T08:09:34.348Z,47.78
2022-11-25T08:15:04.210Z,45.13
2022-11-25T08:17:31.869Z,36.60
2022-11-25T08:19:59.584Z,40.67
2022-11-25T08:22:27.954Z,46.75
2022-11-25T08:24:55.506Z,45.95
2022-11-25T08:27:29.131Z,42.08
2022-11-25T08:29:59.717Z,43.33
2022-11-25T08:32:27.337Z,42.72
2022-11-25T08:34:57.411Z,42.60
2022-11-25T08:37:25.159Z,35.97
2022-11-25T08:39:55.186Z,40.83
2022-11-25T08:44:55.632Z,32.95
2022-11-25T08:47:24.201Z,42.63
2022-11-25T08:49:52.848Z,35.00
2022-11-25T08:52:24.895Z,38.50
2022-11-25T08:54:56.401Z,47.05
2022-11-25T08:57:24.780Z,43.03
2022-11-25T08:59:53.153Z,32.45
2022-11-25T09:02:22.895Z,38.67
2022-11-25T09:04:50.643Z,37.15
2022-11-25T09:07:18.676Z,30.35
2022-11-25T09:09:48.356Z,39.40
2022-11-25T09:12:21.127Z,35.35
2022-11-25T09:14:51.055Z,31.38
2022-11-25T09:17:18.690Z,33.17
2022-11-25T09:19:48.491Z,28.85
2022-11-25T09:22:17.618Z,29.30
2022-11-25T09:24:48.135Z,30.10
2022-11-25T09:27:18.230Z,32.33
2022-11-25T09:29:48.314Z,24.20
2022-11-25T09:32:15.984Z,21.63
2022-11-25T09:34:43.638Z,30.50
2022-11-25T09:37:12.187Z,37.80
2022-11-25T09:39:39.895Z,34.67
2022-11-25T09:42:44.095Z,27.15
2022-11-25T09:45:40.715Z,30.50
2022-11-25T09:48:39.280Z,32.35
2022-11-25T09:51:42.321Z,29.30
2022-11-25T09:54:20.050Z,33.45
2022-11-25T09:57:08.145Z,26.77
2022-11-25T09:59:51.720Z,32.90
2022-11-25T10:02:36.542Z,26.95
2022-11-25T10:08:36.841Z,25.00
2022-11-25T10:11:23.166Z,31.35
2022-11-25T10:14:07.124Z,34.63
2022-11-25T10:16:52.052Z,26.23
2022-11-25T10:19:40.959Z,29.02
2022-11-25T10:22:30.681Z,26.75
2022-11-25T10:25:13.150Z,27.90
2022-11-25T10:27:58.274Z,32.75
2022-11-25T10:30:39.044Z,32.75
2022-11-25T10:33:18.000Z,32.72
2022-11-25T10:36:08.369Z,36.08
2022-11-25T10:38:40.056Z,39.75
2022-11-25T10:41:22.900Z,26.35
2022-11-25T10:43:50.834Z,28.85
2022-11-25T10:47:13.567Z,33.47
2022-11-25T10:50:01.094Z,35.75
2022-11-25T10:52:37.259Z,27.92
2022-11-25T10:55:17.630Z,24.83
2022-11-25T10:57:45.268Z,22.50
2022-11-25T11:00:33.154Z,27.73
2022-11-25T11:05:50.454Z,32.95
2022-11-25T11:08:24.756Z,31.75
2022-11-25T11:11:21.350Z,29.08
2022-11-25T11:14:10.239Z,29.00
2022-11-25T11:16:45.358Z,24.58
2022-11-25T11:19:36.515Z,32.55
2022-11-25T11:22:21.231Z,28.83
2022-11-25T11:25:24.534Z,32.00
2022-11-25T11:27:54.513Z,22.13
2022-11-25T11:30:25.086Z,28.67
2022-11-25T11:33:01.874Z,30.70
2022-11-25T11:35:45.512Z,25.95
2022-11-25T11:38:29.937Z,22.15
2022-11-25T11:41:17.199Z,27.70
2022-11-25T11:44:27.293Z,29.55
2022-11-25T11:47:13.014Z,22.15
2022-11-25T11:53:07.174Z,31.77
2022-11-25T11:55:44.720Z,27.90
2022-11-25T11:58:33.976Z,28.48
2022-11-25T12:01:22.256Z,25.08
2022-11-25T12:04:26.796Z,26.50
2022-11-25T12:07:10.117Z,22.02
2022-11-25T12:09:49.929Z,26.73
2022-11-25T12:12:35.097Z,32.28
2022-11-25T12:15:27.226Z,21.20
2022-11-25T12:18:11.544Z,30.23
2022-11-25T12:20:59.369Z,23.67
2022-11-25T12:24:07.767Z,29.27
2022-11-25T12:26:50.610Z,26.25
2022-11-25T12:29:52.331Z,17.08
2022-11-25T12:32:40.350Z,23.13
2022-11-25T12:35:46.306Z,24.30
2022-11-25T12:38:22.906Z,27.67
2022-11-25T12:41:20.485Z,23.13
2022-11-25T12:44:00.534Z,21.73
2022-11-25T12:47:07.261Z,19.15
2022-11-25T12:49:50.609Z,24.37
2022-11-25T12:52:28.790Z,25.08
2022-11-25T12:58:07.290Z,23.83
2022-11-25T13:01:07.774Z,23.00
2022-11-25T13:03:48.194Z,26.20
2022-11-25T13:07:07.162Z,18.70
2022-11-25T13:10:13.398Z,21.98
2022-11-25T13:13:07.347Z,17.50
2022-11-25T13:15:45.968Z,17.58
2022-11-25T13:18:24.865Z,17.60
2022-11-25T13:20:55.135Z,25.52
2022-11-25T13:23:27.052Z,18.42
2022-11-25T13:26:29.881Z,18.58
2022-11-25T13:29:28.666Z,22.55
2022-11-25T13:32:29.537Z,25.85
2022-11-25T13:35:38.876Z,21.10
2022-11-25T13:38:29.808Z,16.95
2022-11-25T13:41:01.930Z,16.85
2022-11-25T13:44:01.978Z,20.48
2022-11-25T13:46:41.470Z,21.02
2022-11-25T13:49:34.248Z,18.35
2022-11-25T13:52:23.560Z,20.98
2022-11-25T13:54:54.166Z,29.08
2022-11-25T13:57:35.940Z,19.20
2022-11-25T14:00:13.995Z,20.42
2022-11-25T14:02:50.747Z,25.25
2022-11-25T14:05:57.612Z,19.42
2022-11-25T14:09:03.032Z,24.95
2022-11-25T14:11:52.146Z,18.48
2022-11-25T14:14:49.923Z,32.97
2022-11-25T14:18:24.448Z,17.92
2022-11-25T14:21:35.817Z,22.77
2022-11-25T14:24:25.470Z,21.77
2022-11-25T14:26:54.226Z,20.20
2022-11-25T14:29:45.335Z,27.60
2022-11-25T14:32:22.616Z,21.35
2022-11-25T14:35:13.711Z,31.73
2022-11-25T14:38:07.219Z,21.08
2022-11-25T14:40:56.089Z,26.00
2022-11-25T14:43:26.340Z,19.40
2022-11-25T14:46:19.188Z,28.15
2022-11-25T14:48:54.355Z,26.63
2022-11-25T14:51:28.825Z,25.95
2022-11-25T14:53:57.800Z,24.42
2022-11-25T14:56:31.506Z,29.00
2022-11-25T14:59:03.419Z,31.02
2022-11-25T15:01:35.115Z,26.40
2022-11-25T15:04:24.369Z,26.02
2022-11-25T15:07:07.951Z,22.05
2022-11-25T15:09:57.569Z,25.08
2022-11-25T15:12:40.622Z,23.60
2022-11-25T15:15:18.359Z,22.92
2022-11-25T15:18:27.303Z,27.27
2022-11-25T15:21:00.010Z,28.92
2022-11-25T15:23:45.248Z,24.90
2022-11-25T15:26:20.455Z,29.80
2022-11-25T15:29:15.395Z,22.73
2022-11-25T15:31:43.408Z,27.23
2022-11-25T15:34:18.586Z,31.25
2022-11-25T15:36:54.028Z,30.77
2022-11-25T15:39:33.994Z,23.67
2022-11-25T15:42:26.490Z,27.70
2022-11-25T15:45:07.086Z,27.83
2022-11-25T15:47:36.195Z,33.22
2022-11-25T15:50:25.014Z,26.45
2022-11-25T15:52:55.962Z,35.17
2022-11-25T15:55:40.691Z,33.28
2022-11-25T15:58:18.444Z,26.70
2022-11-25T16:01:21.270Z,29.35
2022-11-25T16:03:52.086Z,30.77
2022-11-25T16:06:25.340Z,24.60
2022-11-25T16:08:55.481Z,34.63
2022-11-25T16:11:26.902Z,30.23
2022-11-25T16:14:27.038Z,34.40
2022-11-25T16:17:07.117Z,28.17
2022-11-25T16:19:45.774Z,30.35
2022-11-25T16:22:21.832Z,31.90
2022-11-25T16:25:00.404Z,32.92
2022-11-25T16:27:31.370Z,32.63
2022-11-25T16:30:16.379Z,23.60
2022-11-25T16:32:46.780Z,21.95
2022-11-25T16:35:15.573Z,28.73
2022-11-25T16:37:49.225Z,35.85
2022-11-25T16:40:18.931Z,27.75
2022-11-25T16:42:51.034Z,40.90
2022-11-25T16:45:27.825Z,32.25
2022-11-25T16:47:55.522Z,42.45
2022-11-25T16:50:23.378Z,49.65
2022-11-25T16:52:50.850Z,40.63
2022-11-25T16:55:18.599Z,38.30
2022-11-25T16:57:46.797Z,26.98
2022-11-25T17:00:16.849Z,37.88
2022-11-25T17:02:45.190Z,30.85
2022-11-25T17:05:22.501Z,39.63
2022-11-25T17:07:56.404Z,31.48
2022-11-25T17:10:28.016Z,32.42
2022-11-25T17:13:05.524Z,47.30
2022-11-25T17:16:25.402Z,46.88
2022-11-25T17:18:57.984Z,47.40
2022-11-25T17:21:57.785Z,44.50
2022-11-25T17:28:35.497Z,43.90
2022-11-25T17:31:34.082Z,26.15
2022-11-25T17:34:19.211Z,47.88
2022-11-25T17:41:39.645Z,30.83
2022-11-25T17:44:55.631Z,31.75
2022-11-25T17:48:19.295Z,34.97
2022-11-25T17:51:25.648Z,37.22
2022-11-25T18:02:39.744Z,36.05
2022-11-25T18:06:06.671Z,40.65
2022-11-25T18:13:38.695Z,38.97
2022-11-25T18:18:10.676Z,41.70
2022-11-25T18:20:40.015Z,36.53
2022-11-25T18:23:18.607Z,37.95
2022-11-25T18:25:55.602Z,36.90
2022-11-25T18:28:51.332Z,34.03
2022-11-25T18:31:28.675Z,37.63
2022-11-25T18:33:57.865Z,37.47
2022-11-25T18:39:38.131Z,33.75
2022-11-25T18:42:10.256Z,37.63
2022-11-25T18:44:43.795Z,36.60
2022-11-25T18:47:27.336Z,35.45
2022-11-25T18:50:00.313Z,34.10
2022-11-25T18:52:30.652Z,39.22
2022-11-25T18:55:08.493Z,37.33
2022-11-25T18:58:19.388Z,35.40
2022-11-25T19:01:02.368Z,36.60
2022-11-25T19:03:33.190Z,44.45
2022-11-25T19:06:06.354Z,39.28
2022-11-25T19:09:02.071Z,38.83
2022-11-25T19:11:55.273Z,39.35
2022-11-25T19:14:30.347Z,35.28
2022-11-25T19:17:04.334Z,36.90
2022-11-25T19:19:32.295Z,35.80
2022-11-25T19:22:06.444Z,37.42
2022-11-25T19:24:37.131Z,45.80
2022-11-25T19:27:19.994Z,40.40
2022-11-25T19:29:58.621Z,41.20
2022-11-25T19:32:29.537Z,39.47
2022-11-25T19:35:03.956Z,39.50
2022-11-25T19:37:35.341Z,49.42
2022-11-25T19:40:13.070Z,36.13
2022-11-25T19:43:09.395Z,45.08
2022-11-25T19:45:43.048Z,32.38
2022-11-25T19:48:35.611Z,40.13
2022-11-25T19:51:14.355Z,45.22
2022-11-25T19:53:45.470Z,50.67
2022-11-25T19:56:24.191Z,41.92
2022-11-25T19:59:02.351Z,40.80
2022-11-25T20:04:04.859Z,42.90
2022-11-25T20:06:52.841Z,43.25
2022-11-25T20:09:28.397Z,44.33
2022-11-25T20:12:03.219Z,44.17
2022-11-25T20:17:39.890Z,40.30
2022-11-25T20:20:22.971Z,41.50
2022-11-25T20:23:28.063Z,45.05
2022-11-25T20:26:10.959Z,34.47
2022-11-25T20:28:50.495Z,45.55
2022-11-25T20:31:30.650Z,41.75
2022-11-25T20:34:05.535Z,41.50
2022-11-25T20:36:46.432Z,35.30
2022-11-25T20:39:18.792Z,34.00
2022-11-25T20:41:54.940Z,39.25
2022-11-25T20:44:58.092Z,36.80
2022-11-25T20:47:30.117Z,46.15
2022-11-25T20:50:33.594Z,44.03
2022-11-25T20:53:01.396Z,38.15
2022-11-25T20:57:57.930Z,47.88
2022-11-25T21:00:32.475Z,39.50
2022-11-25T21:03:00.137Z,45.97
2022-11-25T21:05:27.930Z,43.58
2022-11-25T21:07:55.808Z,40.90
2022-11-25T21:10:29.430Z,57.20
2022-11-25T21:12:57.342Z,44.03
2022-11-25T21:15:27.592Z,49.25
2022-11-25T21:17:55.598Z,47.25
2022-11-25T21:20:35.609Z,53.63
2022-11-25T21:23:06.602Z,48.45
2022-11-25T21:25:35.284Z,43.88
2022-11-25T21:28:05.557Z,44.00
2022-11-25T21:30:34.152Z,59.72
2022-11-25T21:33:02.062Z,56.10
2022-11-25T21:35:39.487Z,48.88
2022-11-25T21:38:25.155Z,49.92
2022-11-25T21:40:56.161Z,49.53
2022-11-25T21:43:37.284Z,50.55
2022-11-25T21:46:07.798Z,50.15
2022-11-25T21:48:39.846Z,70.65
2022-11-25T21:51:12.575Z,53.17
2022-11-25T21:53:40.172Z,59.88
2022-11-25T21:56:22.688Z,52.17
2022-11-25T21:58:50.250Z,48.58
2022-11-25T22:01:18.292Z,72.60
2022-11-25T22:03:46.000Z,58.75
2022-11-25T22:06:21.918Z,49.20
2022-11-25T22:08:50.389Z,64.20
2022-11-25T22:11:26.302Z,55.78
2022-11-25T22:13:53.851Z,55.42
2022-11-25T22:16:27.837Z,74.43
2022-11-25T22:18:56.299Z,68.40
2022-11-25T22:21:24.161Z,47.70
2022-11-25T22:23:54.326Z,46.33
2022-11-25T22:26:30.678Z,60.72
2022-11-25T22:28:59.974Z,62.30
2022-11-25T22:31:30.925Z,63.35
2022-11-25T22:33:58.569Z,61.55
2022-11-25T22:36:33.845Z,49.90
2022-11-25T22:41:45.412Z,52.58
2022-11-25T22:44:23.365Z,42.75
2022-11-25T22:46:51.930Z,45.33
2022-11-25T22:49:35.536Z,52.55
2022-11-25T22:52:10.300Z,51.28
2022-11-25T22:54:43.978Z,64.13
2022-11-25T22:57:11.525Z,58.28
2022-11-25T22:59:39.085Z,55.65
2022-11-25T23:02:28.570Z,52.90
2022-11-25T23:04:56.818Z,50.63
2022-11-25T23:07:24.386Z,40.67
2022-11-25T23:09:52.641Z,50.85
2022-11-25T23:14:47.610Z,46.78
2022-11-25T23:17:24.053Z,42.15
2022-11-25T23:19:52.363Z,51.25
2022-11-25T23:22:20.471Z,65.40
2022-11-25T23:24:48.924Z,40.78
2022-11-25T23:27:16.906Z,60.88
2022-11-25T23:29:45.048Z,57.55
2022-11-25T23:34:45.249Z,47.25
2022-11-25T23:37:13.788Z,45.72
2022-11-25T23:39:41.712Z,43.33
2022-11-25T23:42:17.711Z,47.13
2022-11-25T23:44:45.671Z,55.75
2022-11-25T23:47:18.481Z,42.67
2022-11-25T23:49:49.793Z,58.95
2022-11-25T23:52:22.253Z,50.35
2022-11-25T23:54:51.441Z,54.60
2022-11-25T23:57:29.819Z,47.28
2022-11-25T23:59:57.612Z,53.33
